createdAt,value
2018-07-10T00:03:45.729Z,94.10
2018-07-10T00:08:14.695Z,94.80
2018-07-10T00:12:19.166Z,94.80
2018-07-10T00:16:24.081Z,94.70
2018-07-10T00:20:28.518Z,94.80
2018-07-10T00:24:32.882Z,94.60
2018-07-10T00:28:37.350Z,95.20
2018-07-10T00:32:41.818Z,95.50
2018-07-10T00:36:46.281Z,95.60
2018-07-10T00:40:50.755Z,95.60
2018-07-10T00:44:55.227Z,95.50
2018-07-10T00:49:00.030Z,95.90
2018-07-10T00:53:04.472Z,95.50
2018-07-10T00:57:08.946Z,95.60
2018-07-10T01:01:13.790Z,95.50
2018-07-10T01:05:18.242Z,96.10
2018-07-10T01:09:22.937Z,95.70
2018-07-10T01:13:27.461Z,95.70
2018-07-10T01:17:31.928Z,96.00
2018-07-10T01:21:36.497Z,96.30
2018-07-10T01:25:40.887Z,96.50
2018-07-10T01:29:49.421Z,95.90
2018-07-10T01:33:53.941Z,95.60
2018-07-10T01:37:58.550Z,95.80
2018-07-10T01:42:02.982Z,96.20
2018-07-10T01:46:07.515Z,96.50
2018-07-10T01:50:11.891Z,96.20
2018-07-10T01:54:16.595Z,96.40
2018-07-10T01:58:21.837Z,96.80
2018-07-10T02:02:26.284Z,96.90
2018-07-10T02:06:31.116Z,96.80
2018-07-10T02:10:35.585Z,97.20
2018-07-10T02:14:39.974Z,97.50
2018-07-10T02:18:44.785Z,97.30
2018-07-10T02:22:50.104Z,97.80
2018-07-10T02:26:55.099Z,97.60
2018-07-10T02:31:00.136Z,98.10
2018-07-10T02:35:05.400Z,98.50
2018-07-10T02:39:10.003Z,98.70
2018-07-10T02:43:14.966Z,98.60
2018-07-10T02:47:19.568Z,98.80
2018-07-10T02:51:24.276Z,98.80
2018-07-10T02:55:29.371Z,99.00
2018-07-10T02:59:37.946Z,99.20
2018-07-10T03:03:44.126Z,99.40
2018-07-10T03:07:48.794Z,99.50
2018-07-10T03:11:53.472Z,99.50
2018-07-10T03:15:58.020Z,99.60
2018-07-10T03:20:04.016Z,99.80
2018-07-10T03:24:08.950Z,99.60
2018-07-10T03:28:13.718Z,99.90
2018-07-10T03:32:18.789Z,99.90
2018-07-10T03:36:23.477Z,99.90
2018-07-10T03:40:29.465Z,99.90
2018-07-10T03:44:34.007Z,99.80
2018-07-10T03:48:39.209Z,99.50
2018-07-10T03:52:45.266Z,99.50
2018-07-10T03:56:49.768Z,99.50
2018-07-10T04:00:54.274Z,99.10
2018-07-10T04:04:58.847Z,99.20
2018-07-10T04:09:05.056Z,98.90
2018-07-10T04:13:12.733Z,98.50
2018-07-10T04:17:29.634Z,97.90
2018-07-10T04:21:34.642Z,97.00
2018-07-10T04:25:39.249Z,97.40
2018-07-10T04:29:51.343Z,96.40
2018-07-10T04:33:55.986Z,96.50
2018-07-10T04:38:00.652Z,96.70
2018-07-10T04:42:12.685Z,96.00
2018-07-10T04:46:17.161Z,95.40
2018-07-10T04:50:27.872Z,95.60
2018-07-10T04:54:46.612Z,95.40
2018-07-10T04:58:55.666Z,95.20
2018-07-10T05:03:00.960Z,95.30
2018-07-10T05:07:08.400Z,93.40
2018-07-10T05:11:12.895Z,93.10
2018-07-10T05:15:17.466Z,93.10
2018-07-10T05:19:22.066Z,91.40
2018-07-10T05:23:31.290Z,91.20
2018-07-10T05:27:36.253Z,90.70
2018-07-10T05:31:41.006Z,88.80
2018-07-10T05:35:46.157Z,89.00
2018-07-10T05:39:50.787Z,87.90
2018-07-10T05:43:55.434Z,87.10
2018-07-10T05:48:02.330Z,84.40
2018-07-10T05:52:06.852Z,86.50
2018-07-10T05:56:12.306Z,87.90
2018-07-10T06:00:16.851Z,87.10
2018-07-10T06:04:21.288Z,88.20
2018-07-10T06:08:25.905Z,87.20
2018-07-10T06:12:30.491Z,87.10
2018-07-10T06:16:36.104Z,85.40
2018-07-10T06:20:42.586Z,82.90
2018-07-10T06:24:47.152Z,80.50
2018-07-10T06:28:58.330Z,77.60
2018-07-10T06:33:05.980Z,77.40
2018-07-10T06:37:11.616Z,75.90
2018-07-10T06:41:16.339Z,73.80
2018-07-10T06:45:20.906Z,71.50
2018-07-10T06:49:43.899Z,75.10
2018-07-10T06:53:50.293Z,70.60
2018-07-10T06:57:57.994Z,69.40
2018-07-10T07:02:02.510Z,68.30
2018-07-10T07:06:06.959Z,67.70
2018-07-10T07:10:13.695Z,68.60
2018-07-10T07:14:18.300Z,68.10
2018-07-10T07:18:23.027Z,66.70
2018-07-10T07:22:27.785Z,65.60
2018-07-10T07:26:32.306Z,64.50
2018-07-10T07:30:36.863Z,66.50
2018-07-10T07:34:41.446Z,67.70
2018-07-10T07:38:46.035Z,67.60
2018-07-10T07:42:50.595Z,67.40
2018-07-10T07:46:55.192Z,62.50
2018-07-10T07:51:00.418Z,64.60
2018-07-10T07:55:05.260Z,66.80
2018-07-10T07:59:09.901Z,66.50
2018-07-10T08:03:14.572Z,64.80
2018-07-10T08:07:20.746Z,67.20
2018-07-10T08:11:25.278Z,65.30
2018-07-10T08:15:29.846Z,62.70
2018-07-10T08:19:34.383Z,58.10
2018-07-10T08:23:39.026Z,57.80
2018-07-10T08:27:43.942Z,53.40
2018-07-10T08:31:48.721Z,55.90
2018-07-10T08:35:53.306Z,52.30
2018-07-10T08:39:57.826Z,49.70
2018-07-10T08:44:02.369Z,49.40
2018-07-10T08:48:07.113Z,49.90
2018-07-10T08:52:12.985Z,48.60
2018-07-10T08:56:17.600Z,48.80
2018-07-10T09:00:22.184Z,43.60
2018-07-10T09:04:26.928Z,39.80
2018-07-10T09:08:31.402Z,38.50
2018-07-10T09:12:36.009Z,36.70
2018-07-10T09:16:40.460Z,36.10
2018-07-10T09:20:49.204Z,37.30
2018-07-10T09:24:57.351Z,36.90
2018-07-10T09:29:01.946Z,40.60
2018-07-10T09:33:06.851Z,39.00
2018-07-10T09:38:13.964Z,39.80
2018-07-10T09:42:18.478Z,42.30
2018-07-10T09:46:23.055Z,39.80
2018-07-10T09:50:27.709Z,39.60
2018-07-10T09:54:32.550Z,40.10
2018-07-10T09:58:37.748Z,37.30
2018-07-10T10:02:42.345Z,34.80
2018-07-10T10:06:46.849Z,34.80
2018-07-10T10:10:51.489Z,37.10
2018-07-10T10:14:56.197Z,34.20
2018-07-10T10:19:00.753Z,34.10
2018-07-10T10:23:05.690Z,34.80
2018-07-10T10:27:11.216Z,31.10
2018-07-10T10:31:15.807Z,29.90
2018-07-10T10:35:20.426Z,32.10
2018-07-10T10:39:24.983Z,29.50
2018-07-10T10:43:29.564Z,29.80
2018-07-10T10:47:34.828Z,30.00
2018-07-10T10:51:39.411Z,31.00
2018-07-10T10:55:44.007Z,28.70
2018-07-10T10:59:51.464Z,25.80
2018-07-10T11:03:56.106Z,27.00
2018-07-10T11:08:01.922Z,26.00
2018-07-10T11:12:06.605Z,28.10
2018-07-10T11:16:11.172Z,29.10
2018-07-10T11:20:24.508Z,30.20
2018-07-10T11:26:39.953Z,29.00
2018-07-10T11:30:44.464Z,28.00
2018-07-10T11:34:48.889Z,27.70
2018-07-10T11:38:53.866Z,30.00
2018-07-10T11:42:58.501Z,30.00
2018-07-10T11:47:02.920Z,27.80
2018-07-10T11:51:07.379Z,28.30
2018-07-10T11:55:11.934Z,28.40
2018-07-10T11:59:16.480Z,29.60
2018-07-10T12:03:21.376Z,30.90
2018-07-10T12:07:25.823Z,28.50
2018-07-10T12:11:32.234Z,30.50
2018-07-10T12:15:37.369Z,32.60
2018-07-10T12:19:42.614Z,33.30
2018-07-10T12:23:47.219Z,32.80
2018-07-10T12:27:52.012Z,28.80
2018-07-10T12:31:56.567Z,28.70
2018-07-10T12:36:01.150Z,26.30
2018-07-10T12:40:05.654Z,26.70
2018-07-10T12:44:10.227Z,24.00
2018-07-10T12:48:14.664Z,23.10
2018-07-10T12:52:19.291Z,23.90
2018-07-10T12:56:23.810Z,23.20
2018-07-10T13:00:29.370Z,23.70
2018-07-10T13:04:34.628Z,22.20
2018-07-10T13:08:39.066Z,22.10
2018-07-10T13:12:43.682Z,23.80
2018-07-10T13:16:48.240Z,27.30
2018-07-10T13:20:53.028Z,29.70
2018-07-10T13:24:57.580Z,29.10
2018-07-10T13:29:02.149Z,36.80
2018-07-10T13:33:06.691Z,34.20
2018-07-10T13:37:11.332Z,36.00
2018-07-10T13:41:15.922Z,37.60
2018-07-10T13:45:21.668Z,37.60
2018-07-10T13:49:26.216Z,41.00
2018-07-10T13:53:30.697Z,36.20
2018-07-10T13:57:35.509Z,39.40
2018-07-10T14:01:40.913Z,39.20
2018-07-10T14:05:45.471Z,38.90
2018-07-10T14:09:50.061Z,39.50
2018-07-10T14:13:54.636Z,41.10
2018-07-10T14:17:59.668Z,39.00
2018-07-10T14:22:04.623Z,36.40
2018-07-10T14:26:09.143Z,35.80
2018-07-10T14:30:13.732Z,32.80
2018-07-10T14:34:18.262Z,33.10
2018-07-10T14:38:27.090Z,33.10
2018-07-10T14:42:31.956Z,34.80
2018-07-10T14:46:36.589Z,37.80
2018-07-10T14:50:41.254Z,43.90
2018-07-10T14:54:45.938Z,45.70
2018-07-10T14:58:50.593Z,44.50
2018-07-10T15:02:55.443Z,44.50
2018-07-10T15:06:59.834Z,46.30
2018-07-10T15:11:04.553Z,46.10
2018-07-10T15:15:09.214Z,48.00
2018-07-10T15:19:15.477Z,45.00
2018-07-10T15:23:19.998Z,45.40
2018-07-10T15:27:24.628Z,44.20
2018-07-10T15:31:29.595Z,46.50
2018-07-10T15:35:34.040Z,46.90
2018-07-10T15:39:38.720Z,46.60
2018-07-10T15:43:43.185Z,46.90
2018-07-10T15:47:48.038Z,48.90
2018-07-10T15:51:53.122Z,50.80
2018-07-10T15:55:57.601Z,52.20
2018-07-10T16:00:02.308Z,53.50
2018-07-10T16:04:07.107Z,53.40
2018-07-10T16:08:15.938Z,54.40
2018-07-10T16:12:22.698Z,55.00
2018-07-10T16:16:27.424Z,55.20
2018-07-10T16:20:34.854Z,55.70
2018-07-10T16:24:44.778Z,56.50
2018-07-10T16:28:49.511Z,57.00
2018-07-10T16:32:54.150Z,58.50
2018-07-10T16:36:59.099Z,58.20
2018-07-10T16:41:08.563Z,58.10
2018-07-10T16:45:16.784Z,62.80
2018-07-10T16:49:29.221Z,72.80
2018-07-10T16:53:35.457Z,88.20
2018-07-10T16:57:40.214Z,93.10
2018-07-10T17:01:44.845Z,96.70
2018-07-10T17:05:49.394Z,96.60
2018-07-10T17:09:55.074Z,98.90
2018-07-10T17:13:59.555Z,99.90
2018-07-10T17:18:04.558Z,99.90
2018-07-10T17:22:09.056Z,99.90
2018-07-10T17:26:13.527Z,99.90
2018-07-10T17:30:18.480Z,99.90
2018-07-10T17:34:23.393Z,99.90
2018-07-10T17:38:29.743Z,99.90
2018-07-10T17:42:35.478Z,99.90
2018-07-10T17:46:40.432Z,99.90
2018-07-10T17:50:45.155Z,99.90
2018-07-10T17:54:50.145Z,99.90
2018-07-10T17:58:54.953Z,99.90
2018-07-10T18:02:59.986Z,99.90
2018-07-10T18:07:04.983Z,99.90
2018-07-10T18:11:09.535Z,99.90
2018-07-10T18:15:14.487Z,99.90
2018-07-10T18:19:19.131Z,99.90
2018-07-10T18:23:24.881Z,99.90
2018-07-10T18:27:29.306Z,99.90
2018-07-10T18:31:34.215Z,99.90
2018-07-10T18:35:38.760Z,99.90
2018-07-10T18:39:43.322Z,99.90
2018-07-10T18:43:48.711Z,99.50
2018-07-10T18:47:53.333Z,95.80
2018-07-10T18:51:57.917Z,98.30
2018-07-10T18:56:03.707Z,98.30
2018-07-10T19:00:08.379Z,98.80
2018-07-10T19:04:13.063Z,97.10
2018-07-10T19:08:18.899Z,98.60
2018-07-10T19:12:23.596Z,95.50
2018-07-10T19:16:28.248Z,96.10
2018-07-10T19:20:34.453Z,96.30
2018-07-10T19:24:39.615Z,98.50
2018-07-10T19:28:47.150Z,95.50
2018-07-10T19:32:52.137Z,97.90
2018-07-10T19:36:56.805Z,96.40
2018-07-10T19:41:01.416Z,96.20
2018-07-10T19:45:06.415Z,97.10
2018-07-10T19:49:11.107Z,96.90
2018-07-10T19:53:15.773Z,95.70
2018-07-10T19:57:48.660Z,97.60
2018-07-10T20:02:02.845Z,97.30
2018-07-10T20:06:12.091Z,96.90
2018-07-10T20:10:29.058Z,98.10
2018-07-10T20:14:41.554Z,98.10
2018-07-10T20:19:23.129Z,99.90
2018-07-10T20:24:03.032Z,99.90
2018-07-10T20:28:30.900Z,99.20
2018-07-10T20:33:45.893Z,98.70
2018-07-10T20:37:51.004Z,99.90
2018-07-10T20:41:55.543Z,98.50
2018-07-10T20:46:00.308Z,99.20
2018-07-10T20:50:06.468Z,99.50
2018-07-10T20:54:19.387Z,99.80
2018-07-10T20:58:25.884Z,99.10
2018-07-10T21:04:49.368Z,98.10
2018-07-10T21:09:05.835Z,99.90
2018-07-10T21:13:14.400Z,99.30
2018-07-10T21:17:19.398Z,99.90
2018-07-10T21:24:48.022Z,99.90
2018-07-10T21:28:57.410Z,99.90
2018-07-10T21:33:12.849Z,99.90
2018-07-10T21:47:35.245Z,99.90
2018-07-10T21:51:40.286Z,99.90
2018-07-10T21:55:44.848Z,99.90
2018-07-10T22:00:07.040Z,99.90
2018-07-10T22:04:15.494Z,99.90
2018-07-10T22:08:20.298Z,99.90
2018-07-10T22:12:24.963Z,99.90
2018-07-10T22:16:29.635Z,99.90
2018-07-10T22:20:34.197Z,99.90
2018-07-10T22:24:39.280Z,99.90
2018-07-10T22:28:43.960Z,99.90
2018-07-10T22:32:53.439Z,99.90
2018-07-10T22:36:58.290Z,99.90
2018-07-10T22:41:02.955Z,99.90
2018-07-10T22:45:07.455Z,99.90
2018-07-10T22:49:14.255Z,99.90
2018-07-10T22:53:18.918Z,99.90
2018-07-10T22:57:23.443Z,99.90
2018-07-10T23:01:28.030Z,99.90
2018-07-10T23:05:32.837Z,99.90
2018-07-10T23:09:37.407Z,99.90
2018-07-10T23:13:46.888Z,99.90
2018-07-10T23:17:51.403Z,99.90
2018-07-10T23:21:55.902Z,99.90
2018-07-10T23:26:00.600Z,99.90
2018-07-10T23:30:05.051Z,99.90
2018-07-10T23:34:13.162Z,99.90
2018-07-10T23:39:26.323Z,99.90
2018-07-10T23:43:39.483Z,99.90
2018-07-10T23:47:45.789Z,99.90
2018-07-10T23:52:00.885Z,99.90
2018-07-10T23:56:05.399Z,99.90
